< < Back
Terminal Aerodrome Forecast


Current Version              Previous Versions:   1  2  3  4  5  6  7  8  9  

Terminal Aerodrome Forecast

511
FTUS42 KGSP 160500
TAFCLT
TAF
KCLT 160540Z 1606/1706 00000KT 6SM BR FEW007 OVC012
      TEMPO 1606/1608 5SM BR BKN007 OVC012
     FM160800 00000KT 5SM BR OVC005
     FM161500 32003KT P6SM SCT035
     FM162000 00000KT P6SM SCT050 PROB30 1621/1703 4SM SHRA BKN040
     FM170300 04003KT P6SM BKN050=

Latest METAR

417
SAUS70 KWBC 161100 RRB
MTRCLT
METAR KCLT 161052Z 28003KT 8SM BKN005 OVC008 21/19 A3007 RMK AO2 SLP176
T02110194


USA.gov is the U.S. government's official web portal to all federal, state and local government web resources and services.